<?xml version='1.0' encoding='UTF-8'?><gpx version="1.1" creator="JPX - https://github.com/jenetics/jpx" xmlns="http://www.topografix.com/GPX/1/1"><trk><trkseg><trkpt lat="39.361522620511444" lon="16.029688767553846"><ele>1.0</ele><time>2026-03-27T10:31:54.372Z</time></trkpt><trkpt lat="39.361575081894166" lon="16.029624718244776"><ele>0.9999999999999999</ele><time>2026-03-27T10:32:02Z</time></trkpt><trkpt lat="39.36163864891842" lon="16.02959949160455"><ele>1.0</ele><time>2026-03-27T10:32:07Z</time></trkpt><trkpt lat="39.36170434882766" lon="16.02955487720675"><ele>1.0</ele><time>2026-03-27T10:32:12Z</time></trkpt><trkpt lat="39.36176922611477" lon="16.029526221413235"><ele>0.9999999999999999</ele><time>2026-03-27T10:32:17Z</time></trkpt><trkpt lat="39.361836710081434" lon="16.029491046629754"><ele>1.0</ele><time>2026-03-27T10:32:22Z</time></trkpt><trkpt lat="39.36190587286922" lon="16.029464918631557"><ele>1.0</ele><time>2026-03-27T10:32:27Z</time></trkpt><trkpt lat="39.3619732216428" lon="16.029442619363003"><ele>1.0</ele><time>2026-03-27T10:32:32Z</time></trkpt><trkpt lat="39.36203639237568" lon="16.029409690688407"><ele>0.9999999999999999</ele><time>2026-03-27T10:32:37Z</time></trkpt><trkpt lat="39.36210625007749" lon="16.029373759953693"><ele>1.0</ele><time>2026-03-27T10:32:41.999Z</time></trkpt><trkpt lat="39.362169622438714" lon="16.02934134673825"><ele>1.0</ele><time>2026-03-27T10:32:46.999Z</time></trkpt><trkpt lat="39.362237583438485" lon="16.02930448414013"><ele>0.9999999999999999</ele><time>2026-03-27T10:32:51.999Z</time></trkpt><trkpt lat="39.362307857158626" lon="16.029281709105554"><ele>1.0</ele><time>2026-03-27T10:32:56.999Z</time></trkpt><trkpt lat="39.36237190213481" lon="16.029247423061616"><ele>1.0</ele><time>2026-03-27T10:33:01.999Z</time></trkpt><trkpt lat="39.3624362163804" lon="16.029206649761274"><ele>0.8571428571428571</ele><time>2026-03-27T10:33:06.999Z</time></trkpt><trkpt lat="39.362502230092595" lon="16.029179731710805"><ele>0.7142857142857142</ele><time>2026-03-27T10:33:11.999Z</time></trkpt><trkpt lat="39.36257095145025" lon="16.02915076412108"><ele>0.5714285714285714</ele><time>2026-03-27T10:33:16.999Z</time></trkpt><trkpt lat="39.36264026956388" lon="16.02913386283529"><ele>0.42857142857142855</ele><time>2026-03-27T10:33:21.999Z</time></trkpt><trkpt lat="39.36269807175188" lon="16.029088385140728"><ele>0.2857142857142857</ele><time>2026-03-27T10:33:26.999Z</time></trkpt><trkpt lat="39.362760198099316" lon="16.029052511216"><ele>0.14285714285714285</ele><time>2026-03-27T10:33:31.999Z</time></trkpt><trkpt lat="39.36282723778647" lon="16.029029872816594"><ele>0.0</ele><time>2026-03-27T10:33:36.999Z</time></trkpt><trkpt lat="39.36289391116594" lon="16.02899207764903"><ele>0.0</ele><time>2026-03-27T10:33:41.999Z</time></trkpt><trkpt lat="39.362964055420726" lon="16.028970756456765"><ele>0.0</ele><time>2026-03-27T10:33:46.999Z</time></trkpt><trkpt lat="39.36303452472869" lon="16.028950851588124"><ele>0.0</ele><time>2026-03-27T10:33:51.999Z</time></trkpt><trkpt lat="39.36310176487741" lon="16.028928856556963"><ele>0.0</ele><time>2026-03-27T10:33:56.999Z</time></trkpt><trkpt lat="39.36316678135672" lon="16.0289184263291"><ele>0.0</ele><time>2026-03-27T10:34:02Z</time></trkpt><trkpt lat="39.36323816155434" lon="16.028907387196934"><ele>0.0</ele><time>2026-03-27T10:34:07Z</time></trkpt><trkpt lat="39.36330783758987" lon="16.028900845802223"><ele>0.0</ele><time>2026-03-27T10:34:12Z</time></trkpt><trkpt lat="39.36337579974534" lon="16.028887192423152"><ele>0.0</ele><time>2026-03-27T10:34:17Z</time></trkpt><trkpt lat="39.363444918968725" lon="16.0288970106094"><ele>0.0</ele><time>2026-03-27T10:34:22Z</time></trkpt><trkpt lat="39.363516827629624" lon="16.028884672980304"><ele>0.0</ele><time>2026-03-27T10:34:26.999Z</time></trkpt><trkpt lat="39.363588509828176" lon="16.028886186859804"><ele>0.0</ele><time>2026-03-27T10:34:31.999Z</time></trkpt><trkpt lat="39.36365474266566" lon="16.02887203592611"><ele>0.0</ele><time>2026-03-27T10:34:36.999Z</time></trkpt><trkpt lat="39.3637207739083" lon="16.028863341960534"><ele>0.0</ele><time>2026-03-27T10:34:41.999Z</time></trkpt><trkpt lat="39.36378648764175" lon="16.028851768307472"><ele>0.0</ele><time>2026-03-27T10:34:45.999Z</time></trkpt><trkpt lat="39.36386336504488" lon="16.028839947062828"><ele>0.14285714285714285</ele><time>2026-03-27T10:34:50.999Z</time></trkpt><trkpt lat="39.36392869268293" lon="16.028825019591626"><ele>0.2857142857142857</ele><time>2026-03-27T10:34:54.999Z</time></trkpt><trkpt lat="39.36399419023174" lon="16.02879459257721"><ele>0.42857142857142855</ele><time>2026-03-27T10:34:58.999Z</time></trkpt><trkpt lat="39.36406768789155" lon="16.028792234622557"><ele>0.5714285714285714</ele><time>2026-03-27T10:35:03.999Z</time></trkpt><trkpt lat="39.36413354335179" lon="16.028796150813825"><ele>0.7142857142857142</ele><time>2026-03-27T10:35:09.999Z</time></trkpt><trkpt lat="39.36420294537818" lon="16.02878404998599"><ele>0.8571428571428571</ele><time>2026-03-27T10:35:14.999Z</time></trkpt><trkpt lat="39.36427798472634" lon="16.02876207530518"><ele>1.0</ele><time>2026-03-27T10:35:19.999Z</time></trkpt><trkpt lat="39.36434878895339" lon="16.028743766233024"><ele>1.0</ele><time>2026-03-27T10:35:24.999Z</time></trkpt><trkpt lat="39.364421480274686" lon="16.028732282634884"><ele>0.9999999999999999</ele><time>2026-03-27T10:35:28.999Z</time></trkpt><trkpt lat="39.36448117342651" lon="16.028706104545012"><ele>1.0</ele><time>2026-03-27T10:35:32.999Z</time></trkpt><trkpt lat="39.36454342511855" lon="16.02869034413642"><ele>1.0</ele><time>2026-03-27T10:35:36.998Z</time></trkpt><trkpt lat="39.3646048251332" lon="16.02866906748573"><ele>0.9999999999999999</ele><time>2026-03-27T10:35:40.998Z</time></trkpt><trkpt lat="39.364670473091294" lon="16.02864681570997"><ele>1.0</ele><time>2026-03-27T10:35:45.998Z</time></trkpt><trkpt lat="39.36474191073249" lon="16.028617509104766"><ele>1.0</ele><time>2026-03-27T10:35:50.998Z</time></trkpt><trkpt lat="39.36480879554608" lon="16.02858988254636"><ele>1.2857142857142856</ele><time>2026-03-27T10:35:55.998Z</time></trkpt><trkpt lat="39.36487320221864" lon="16.028563041118744"><ele>1.5714285714285712</ele><time>2026-03-27T10:35:59.998Z</time></trkpt><trkpt lat="39.36493930456091" lon="16.028539155343115"><ele>1.857142857142857</ele><time>2026-03-27T10:36:04.998Z</time></trkpt><trkpt lat="39.3650116048169" lon="16.02850510122405"><ele>2.142857142857143</ele><time>2026-03-27T10:36:10Z</time></trkpt><trkpt lat="39.3650794801361" lon="16.028478739992117"><ele>2.4285714285714284</ele><time>2026-03-27T10:36:15Z</time></trkpt><trkpt lat="39.365155331059384" lon="16.028449593925796"><ele>2.714285714285714</ele><time>2026-03-27T10:36:21Z</time></trkpt><trkpt lat="39.3652171221871" lon="16.028432074417264"><ele>3.0</ele><time>2026-03-27T10:36:25Z</time></trkpt><trkpt lat="39.365288577381904" lon="16.028413722179863"><ele>2.9999999999999996</ele><time>2026-03-27T10:36:29Z</time></trkpt><trkpt lat="39.36535487982203" lon="16.028382251756664"><ele>3.0</ele><time>2026-03-27T10:36:34Z</time></trkpt><trkpt lat="39.365425661896005" lon="16.028368358566354"><ele>3.0</ele><time>2026-03-27T10:36:39Z</time></trkpt><trkpt lat="39.365489925225965" lon="16.02833712302035"><ele>3.0</ele><time>2026-03-27T10:36:43.999Z</time></trkpt><trkpt lat="39.36555591486268" lon="16.028314570454377"><ele>3.0</ele><time>2026-03-27T10:36:47.999Z</time></trkpt><trkpt lat="39.36563048994621" lon="16.02828710674015"><ele>2.9999999999999996</ele><time>2026-03-27T10:36:52.999Z</time></trkpt><trkpt lat="39.365697463409525" lon="16.028263243505073"><ele>3.0</ele><time>2026-03-27T10:36:57.999Z</time></trkpt><trkpt lat="39.36576727270672" lon="16.028232170002315"><ele>2.571428571428571</ele><time>2026-03-27T10:37:02.999Z</time></trkpt><trkpt lat="39.36583902694235" lon="16.028203892184806"><ele>2.142857142857143</ele><time>2026-03-27T10:37:07.999Z</time></trkpt><trkpt lat="39.36591133629922" lon="16.028171953499"><ele>1.7142857142857142</ele><time>2026-03-27T10:37:12.999Z</time></trkpt><trkpt lat="39.36597378944336" lon="16.028147506885087"><ele>1.2857142857142856</ele><time>2026-03-27T10:37:17.999Z</time></trkpt><trkpt lat="39.36604790838001" lon="16.028125498080357"><ele>0.8571428571428571</ele><time>2026-03-27T10:37:22.999Z</time></trkpt><trkpt lat="39.36611772273284" lon="16.028094765547685"><ele>0.42857142857142855</ele><time>2026-03-27T10:37:27.999Z</time></trkpt><trkpt lat="39.366178656604184" lon="16.028067284033455"><ele>0.0</ele><time>2026-03-27T10:37:32.999Z</time></trkpt><trkpt lat="39.3662483187517" lon="16.028035800674182"><ele>0.0</ele><time>2026-03-27T10:37:38.999Z</time></trkpt><trkpt lat="39.366312142755845" lon="16.028007945173446"><ele>0.0</ele><time>2026-03-27T10:37:44.999Z</time></trkpt><trkpt lat="39.366380933816934" lon="16.027986777400173"><ele>0.0</ele><time>2026-03-27T10:37:48.999Z</time></trkpt><trkpt lat="39.36644813181636" lon="16.027961937547573"><ele>0.0</ele><time>2026-03-27T10:37:52.999Z</time></trkpt><trkpt lat="39.366510959232215" lon="16.02792300593082"><ele>0.0</ele><time>2026-03-27T10:37:57.999Z</time></trkpt><trkpt lat="39.366576299927495" lon="16.027922189398694"><ele>0.0</ele><time>2026-03-27T10:38:01.999Z</time></trkpt><trkpt lat="39.36664783232296" lon="16.02789817947271"><ele>0.0</ele><time>2026-03-27T10:38:06.998Z</time></trkpt><trkpt lat="39.36671319032288" lon="16.027867003605294"><ele>0.14285714285714285</ele><time>2026-03-27T10:38:12Z</time></trkpt><trkpt lat="39.366777235445774" lon="16.0278386415938"><ele>0.2857142857142857</ele><time>2026-03-27T10:38:17Z</time></trkpt><trkpt lat="39.36685580587162" lon="16.027813261073547"><ele>0.42857142857142855</ele><time>2026-03-27T10:38:23Z</time></trkpt><trkpt lat="39.36692614495973" lon="16.027793598707433"><ele>0.5714285714285714</ele><time>2026-03-27T10:38:28Z</time></trkpt><trkpt lat="39.36699643112772" lon="16.027767811777213"><ele>0.7142857142857142</ele><time>2026-03-27T10:38:33Z</time></trkpt><trkpt lat="39.367066551349524" lon="16.027741373270942"><ele>0.8571428571428571</ele><time>2026-03-27T10:38:38Z</time></trkpt><trkpt lat="39.367138483976994" lon="16.027714509822356"><ele>1.0</ele><time>2026-03-27T10:38:43Z</time></trkpt><trkpt lat="39.36720497001039" lon="16.027685990505017"><ele>1.2857142857142856</ele><time>2026-03-27T10:38:48Z</time></trkpt><trkpt lat="39.36727245106718" lon="16.027667467883028"><ele>1.5714285714285712</ele><time>2026-03-27T10:38:52.999Z</time></trkpt><trkpt lat="39.3673437418347" lon="16.027649907916516"><ele>1.857142857142857</ele><time>2026-03-27T10:38:57.999Z</time></trkpt><trkpt lat="39.36741330318591" lon="16.027628899953594"><ele>2.142857142857143</ele><time>2026-03-27T10:39:02.999Z</time></trkpt><trkpt lat="39.36748366034078" lon="16.027611704953433"><ele>2.4285714285714284</ele><time>2026-03-27T10:39:07.999Z</time></trkpt><trkpt lat="39.36755258290696" lon="16.02759524439389"><ele>2.714285714285714</ele><time>2026-03-27T10:39:12.999Z</time></trkpt><trkpt lat="39.36761570936985" lon="16.027579423650746"><ele>3.0</ele><time>2026-03-27T10:39:17.999Z</time></trkpt><trkpt lat="39.3676883317263" lon="16.027554112195652"><ele>2.9999999999999996</ele><time>2026-03-27T10:39:22.999Z</time></trkpt><trkpt lat="39.36775924887609" lon="16.02753128869333"><ele>3.0</ele><time>2026-03-27T10:39:27.999Z</time></trkpt><trkpt lat="39.36782299299842" lon="16.027519138149117"><ele>3.0</ele><time>2026-03-27T10:39:32.999Z</time></trkpt><trkpt lat="39.367892143077675" lon="16.027494488065262"><ele>3.0</ele><time>2026-03-27T10:39:37.999Z</time></trkpt><trkpt lat="39.36796626923791" lon="16.027472911658"><ele>3.0</ele><time>2026-03-27T10:39:43.999Z</time></trkpt><trkpt lat="39.36803328346673" lon="16.027458091908333"><ele>2.9999999999999996</ele><time>2026-03-27T10:39:48.999Z</time></trkpt><trkpt lat="39.36810029954166" lon="16.027430847528557"><ele>3.0</ele><time>2026-03-27T10:39:53.999Z</time></trkpt><trkpt lat="39.36816780357833" lon="16.027415605713728"><ele>2.571428571428571</ele><time>2026-03-27T10:39:58.999Z</time></trkpt><trkpt lat="39.36823448684684" lon="16.02741182735303"><ele>2.142857142857143</ele><time>2026-03-27T10:40:03.999Z</time></trkpt><trkpt lat="39.36829894050277" lon="16.027386646340545"><ele>1.7142857142857142</ele><time>2026-03-27T10:40:08.998Z</time></trkpt><trkpt lat="39.368367695395975" lon="16.02737014556961"><ele>1.2857142857142856</ele><time>2026-03-27T10:40:13.998Z</time></trkpt><trkpt lat="39.36843374308315" lon="16.027345445822952"><ele>0.8571428571428571</ele><time>2026-03-27T10:40:19Z</time></trkpt><trkpt lat="39.36850116674031" lon="16.02732170077999"><ele>0.42857142857142855</ele><time>2026-03-27T10:40:24Z</time></trkpt><trkpt lat="39.368568644797826" lon="16.027305087506793"><ele>0.0</ele><time>2026-03-27T10:40:29Z</time></trkpt><trkpt lat="39.36863784458583" lon="16.0272906285498"><ele>0.0</ele><time>2026-03-27T10:40:34Z</time></trkpt><trkpt lat="39.36870590179189" lon="16.02726837546134"><ele>0.0</ele><time>2026-03-27T10:40:39Z</time></trkpt><trkpt lat="39.368772214571074" lon="16.02725806120346"><ele>0.0</ele><time>2026-03-27T10:40:44Z</time></trkpt><trkpt lat="39.36883605865589" lon="16.02724941054817"><ele>0.0</ele><time>2026-03-27T10:40:49Z</time></trkpt><trkpt lat="39.36890304728619" lon="16.027224437844247"><ele>0.0</ele><time>2026-03-27T10:40:53.999Z</time></trkpt><trkpt lat="39.368966337351296" lon="16.02719655002928"><ele>0.0</ele><time>2026-03-27T10:40:58.999Z</time></trkpt><trkpt lat="39.369035704683206" lon="16.02717972147583"><ele>0.0</ele><time>2026-03-27T10:41:03.999Z</time></trkpt><trkpt lat="39.369108220502724" lon="16.02716095584334"><ele>0.0</ele><time>2026-03-27T10:41:08.999Z</time></trkpt><trkpt lat="39.36917139254956" lon="16.027139072013025"><ele>0.0</ele><time>2026-03-27T10:41:13.999Z</time></trkpt><trkpt lat="39.369243459754905" lon="16.027122714604822"><ele>0.0</ele><time>2026-03-27T10:41:18.999Z</time></trkpt><trkpt lat="39.36931093518575" lon="16.027099726763666"><ele>0.0</ele><time>2026-03-27T10:41:23.999Z</time></trkpt><trkpt lat="39.36937484626183" lon="16.027085151162034"><ele>0.0</ele><time>2026-03-27T10:41:28.999Z</time></trkpt><trkpt lat="39.36943903049858" lon="16.02706673606973"><ele>0.0</ele><time>2026-03-27T10:41:33.999Z</time></trkpt><trkpt lat="39.36950419102707" lon="16.02704465710709"><ele>0.0</ele><time>2026-03-27T10:41:38.999Z</time></trkpt><trkpt lat="39.36956904811288" lon="16.02701040856069"><ele>0.0</ele><time>2026-03-27T10:41:43.999Z</time></trkpt><trkpt lat="39.36963391473108" lon="16.02698861930629"><ele>0.0</ele><time>2026-03-27T10:41:48.999Z</time></trkpt><trkpt lat="39.36970031251833" lon="16.02694906037128"><ele>0.0</ele><time>2026-03-27T10:41:54.999Z</time></trkpt><trkpt lat="39.36976577303175" lon="16.026921502692943"><ele>0.0</ele><time>2026-03-27T10:41:59.999Z</time></trkpt><trkpt lat="39.36982898217962" lon="16.026898046286163"><ele>0.0</ele><time>2026-03-27T10:42:04.999Z</time></trkpt><trkpt lat="39.3698912320661" lon="16.0268784280608"><ele>0.0</ele><time>2026-03-27T10:42:09.998Z</time></trkpt><trkpt lat="39.369954975852444" lon="16.026853744460915"><ele>0.0</ele><time>2026-03-27T10:42:14.998Z</time></trkpt><trkpt lat="39.370018934457015" lon="16.02682538957177"><ele>0.42857142857142855</ele><time>2026-03-27T10:42:19.998Z</time></trkpt><trkpt lat="39.37008333218928" lon="16.02680886740713"><ele>0.8571428571428571</ele><time>2026-03-27T10:42:25Z</time></trkpt><trkpt lat="39.370145766524516" lon="16.026774835779367"><ele>1.2857142857142856</ele><time>2026-03-27T10:42:30Z</time></trkpt><trkpt lat="39.37020999371404" lon="16.026750686738822"><ele>1.7142857142857142</ele><time>2026-03-27T10:42:35Z</time></trkpt><trkpt lat="39.37027672890354" lon="16.026738397839406"><ele>2.142857142857143</ele><time>2026-03-27T10:42:40Z</time></trkpt><trkpt lat="39.37033711114051" lon="16.026704856227514"><ele>2.571428571428571</ele><time>2026-03-27T10:42:45Z</time></trkpt><trkpt lat="39.37040270797647" lon="16.026686433482084"><ele>3.0</ele><time>2026-03-27T10:42:50Z</time></trkpt><trkpt lat="39.37033718779135" lon="16.02671486439818"><ele>2.9999999999999996</ele><time>2026-03-27T10:42:57.999Z</time></trkpt><trkpt lat="39.37027430216447" lon="16.026736799590253"><ele>3.0</ele><time>2026-03-27T10:43:02.999Z</time></trkpt><trkpt lat="39.37021052060032" lon="16.026768513797908"><ele>3.0</ele><time>2026-03-27T10:43:07.999Z</time></trkpt><trkpt lat="39.370147112843256" lon="16.026787435246664"><ele>3.0</ele><time>2026-03-27T10:43:12.999Z</time></trkpt><trkpt lat="39.37008236456738" lon="16.02680797202409"><ele>3.0</ele><time>2026-03-27T10:43:17.999Z</time></trkpt><trkpt lat="39.36999164674009" lon="16.0268294826311"><ele>2.9999999999999996</ele><time>2026-03-27T10:44:15.998Z</time></trkpt><trkpt lat="39.36992313578373" lon="16.026869729299165"><ele>3.0</ele><time>2026-03-27T10:44:20.998Z</time></trkpt><trkpt lat="39.36985071883401" lon="16.026896071678124"><ele>2.9999999999999996</ele><time>2026-03-27T10:44:26.998Z</time></trkpt><trkpt lat="39.36978776717763" lon="16.026921407635452"><ele>3.0</ele><time>2026-03-27T10:44:32Z</time></trkpt><trkpt lat="39.369724853167156" lon="16.026947103373832"><ele>3.0</ele><time>2026-03-27T10:44:37Z</time></trkpt><trkpt lat="39.36966663199568" lon="16.026991216920294"><ele>3.0</ele><time>2026-03-27T10:44:42Z</time></trkpt><trkpt lat="39.36960408652977" lon="16.027018121032427"><ele>3.0</ele><time>2026-03-27T10:44:47Z</time></trkpt><trkpt lat="39.36953401361364" lon="16.027027967232943"><ele>2.9999999999999996</ele><time>2026-03-27T10:44:52Z</time></trkpt><trkpt lat="39.369469158646034" lon="16.02704708165089"><ele>3.0</ele><time>2026-03-27T10:44:56.999Z</time></trkpt><trkpt lat="39.36940477933127" lon="16.02707537315256"><ele>2.571428571428571</ele><time>2026-03-27T10:45:01.999Z</time></trkpt><trkpt lat="39.36933886516777" lon="16.027089963707077"><ele>2.142857142857143</ele><time>2026-03-27T10:45:06.999Z</time></trkpt><trkpt lat="39.36927274215291" lon="16.027113574312896"><ele>1.7142857142857142</ele><time>2026-03-27T10:45:11.999Z</time></trkpt><trkpt lat="39.369204250973375" lon="16.02713898105664"><ele>1.2857142857142856</ele><time>2026-03-27T10:45:16.999Z</time></trkpt><trkpt lat="39.36913608191266" lon="16.027163116738294"><ele>0.8571428571428571</ele><time>2026-03-27T10:45:21.999Z</time></trkpt><trkpt lat="39.369068081311575" lon="16.027186488521767"><ele>0.42857142857142855</ele><time>2026-03-27T10:45:26.999Z</time></trkpt><trkpt lat="39.36899683654873" lon="16.027204011277"><ele>0.0</ele><time>2026-03-27T10:45:31.999Z</time></trkpt><trkpt lat="39.368930208788406" lon="16.027222254565203"><ele>0.0</ele><time>2026-03-27T10:45:36.999Z</time></trkpt><trkpt lat="39.36886510278601" lon="16.027240256566586"><ele>0.0</ele><time>2026-03-27T10:45:42.999Z</time></trkpt><trkpt lat="39.36879460961167" lon="16.027270561881497"><ele>0.0</ele><time>2026-03-27T10:45:47.999Z</time></trkpt><trkpt lat="39.368722825380004" lon="16.027294979222347"><ele>0.0</ele><time>2026-03-27T10:45:52.999Z</time></trkpt><trkpt lat="39.368653981695054" lon="16.02731396235561"><ele>0.0</ele><time>2026-03-27T10:45:57.999Z</time></trkpt><trkpt lat="39.36858286742282" lon="16.02732733944371"><ele>0.0</ele><time>2026-03-27T10:46:02.999Z</time></trkpt><trkpt lat="39.36851330361287" lon="16.027341274271205"><ele>0.0</ele><time>2026-03-27T10:46:07.999Z</time></trkpt><trkpt lat="39.36844250128042" lon="16.02735802360079"><ele>0.0</ele><time>2026-03-27T10:46:12.999Z</time></trkpt><trkpt lat="39.3683740713929" lon="16.027372824670376"><ele>0.0</ele><time>2026-03-27T10:46:17.998Z</time></trkpt><trkpt lat="39.36830674188067" lon="16.02740002123508"><ele>0.0</ele><time>2026-03-27T10:46:22.998Z</time></trkpt><trkpt lat="39.368233790514296" lon="16.02742106899771"><ele>0.0</ele><time>2026-03-27T10:46:27.998Z</time></trkpt><trkpt lat="39.36816502443711" lon="16.027432503404086"><ele>0.0</ele><time>2026-03-27T10:46:32.998Z</time></trkpt><trkpt lat="39.36809509192427" lon="16.027456591497483"><ele>0.0</ele><time>2026-03-27T10:46:38Z</time></trkpt><trkpt lat="39.36802333102554" lon="16.02747269693677"><ele>0.0</ele><time>2026-03-27T10:46:43Z</time></trkpt><trkpt lat="39.36795301934625" lon="16.027491208156786"><ele>0.42857142857142855</ele><time>2026-03-27T10:46:48Z</time></trkpt><trkpt lat="39.367881874148935" lon="16.027511178450144"><ele>0.8571428571428571</ele><time>2026-03-27T10:46:53Z</time></trkpt><trkpt lat="39.36780952337281" lon="16.027514050059924"><ele>1.2857142857142856</ele><time>2026-03-27T10:46:57.999Z</time></trkpt><trkpt lat="39.3677410765617" lon="16.02754193303786"><ele>1.7142857142857142</ele><time>2026-03-27T10:47:02.999Z</time></trkpt><trkpt lat="39.36767041216703" lon="16.027559350755272"><ele>2.142857142857143</ele><time>2026-03-27T10:47:07.999Z</time></trkpt><trkpt lat="39.367599262645236" lon="16.027588867423233"><ele>2.571428571428571</ele><time>2026-03-27T10:47:12.999Z</time></trkpt><trkpt lat="39.36752937559284" lon="16.02760040056044"><ele>3.0</ele><time>2026-03-27T10:47:17.999Z</time></trkpt><trkpt lat="39.36746156747179" lon="16.02761132844557"><ele>2.9999999999999996</ele><time>2026-03-27T10:47:22.999Z</time></trkpt><trkpt lat="39.36739619631796" lon="16.0276299355342"><ele>3.0</ele><time>2026-03-27T10:47:27.999Z</time></trkpt><trkpt lat="39.36732810089803" lon="16.027652377380747"><ele>3.0</ele><time>2026-03-27T10:47:32.999Z</time></trkpt><trkpt lat="39.36725487389939" lon="16.027678060956767"><ele>3.0</ele><time>2026-03-27T10:47:37.999Z</time></trkpt><trkpt lat="39.36718004821961" lon="16.0277020929032"><ele>3.0</ele><time>2026-03-27T10:47:42.999Z</time></trkpt><trkpt lat="39.36711137057539" lon="16.02772132392272"><ele>2.9999999999999996</ele><time>2026-03-27T10:47:47.999Z</time></trkpt><trkpt lat="39.367047179235115" lon="16.02775502235511"><ele>3.0</ele><time>2026-03-27T10:47:52.999Z</time></trkpt><trkpt lat="39.36697763858997" lon="16.027760307129906"><ele>2.714285714285714</ele><time>2026-03-27T10:47:57.999Z</time></trkpt><trkpt lat="39.366908480947814" lon="16.027791264099534"><ele>2.4285714285714284</ele><time>2026-03-27T10:48:02.999Z</time></trkpt><trkpt lat="39.366834959117114" lon="16.027817356206697"><ele>2.142857142857143</ele><time>2026-03-27T10:48:08.999Z</time></trkpt><trkpt lat="39.366759934374855" lon="16.02784085995295"><ele>1.857142857142857</ele><time>2026-03-27T10:48:13.999Z</time></trkpt><trkpt lat="39.36670198493178" lon="16.02788078696335"><ele>1.5714285714285712</ele><time>2026-03-27T10:48:17.998Z</time></trkpt><trkpt lat="39.36663922038461" lon="16.027904122495517"><ele>1.2857142857142856</ele><time>2026-03-27T10:48:22.998Z</time></trkpt><trkpt lat="39.36656056818932" lon="16.027920577571184"><ele>1.0</ele><time>2026-03-27T10:48:27.998Z</time></trkpt><trkpt lat="39.36649030943221" lon="16.027957562416262"><ele>1.0</ele><time>2026-03-27T10:48:32.998Z</time></trkpt><trkpt lat="39.3664134213826" lon="16.02796914588357"><ele>0.9999999999999999</ele><time>2026-03-27T10:48:37.998Z</time></trkpt><trkpt lat="39.36634371067185" lon="16.027979786294345"><ele>1.0</ele><time>2026-03-27T10:48:43.999Z</time></trkpt><trkpt lat="39.366271925064055" lon="16.028005936187032"><ele>1.0</ele><time>2026-03-27T10:48:48.999Z</time></trkpt><trkpt lat="39.36621078595768" lon="16.028035499626238"><ele>0.9999999999999999</ele><time>2026-03-27T10:48:52.999Z</time></trkpt><trkpt lat="39.36615411976999" lon="16.028073215721896"><ele>1.0</ele><time>2026-03-27T10:48:56.999Z</time></trkpt><trkpt lat="39.366085837828834" lon="16.028098372525122"><ele>1.0</ele><time>2026-03-27T10:49:01.999Z</time></trkpt><trkpt lat="39.366005140273465" lon="16.02812364984208"><ele>0.8333333333333333</ele><time>2026-03-27T10:49:06.999Z</time></trkpt><trkpt lat="39.36594013017913" lon="16.028149387751185"><ele>0.6666666666666666</ele><time>2026-03-27T10:49:11.999Z</time></trkpt><trkpt lat="39.36586377630857" lon="16.028168814218073"><ele>0.5</ele><time>2026-03-27T10:49:16.999Z</time></trkpt><trkpt lat="39.36579471326993" lon="16.02820029319196"><ele>0.3333333333333333</ele><time>2026-03-27T10:49:21.999Z</time></trkpt><trkpt lat="39.36571882274212" lon="16.02822924737427"><ele>0.16666666666666666</ele><time>2026-03-27T10:49:26.999Z</time></trkpt><trkpt lat="39.36564405650899" lon="16.02826875474053"><ele>0.0</ele><time>2026-03-27T10:49:31.999Z</time></trkpt><trkpt lat="39.36557406064287" lon="16.028301136646345"><ele>0.42857142857142855</ele><time>2026-03-27T10:49:36.999Z</time></trkpt><trkpt lat="39.36550990299106" lon="16.028314649083608"><ele>0.8571428571428571</ele><time>2026-03-27T10:49:40.999Z</time></trkpt><trkpt lat="39.3654415813048" lon="16.028342341350804"><ele>1.2857142857142856</ele><time>2026-03-27T10:49:45.999Z</time></trkpt><trkpt lat="39.36536632888312" lon="16.02836052977044"><ele>1.7142857142857142</ele><time>2026-03-27T10:49:50.999Z</time></trkpt><trkpt lat="39.36529763518821" lon="16.028389931097916"><ele>2.142857142857143</ele><time>2026-03-27T10:49:55.999Z</time></trkpt><trkpt lat="39.36523420643849" lon="16.028411332577335"><ele>2.571428571428571</ele><time>2026-03-27T10:49:59.999Z</time></trkpt><trkpt lat="39.36515968529608" lon="16.02844050661608"><ele>3.0</ele><time>2026-03-27T10:50:04.999Z</time></trkpt><trkpt lat="39.365087507611015" lon="16.028470965954952"><ele>2.9999999999999996</ele><time>2026-03-27T10:50:09.999Z</time></trkpt><trkpt lat="39.365018744369465" lon="16.02849657046474"><ele>3.0</ele><time>2026-03-27T10:50:14.999Z</time></trkpt><trkpt lat="39.36495573772345" lon="16.028511926865082"><ele>3.0</ele><time>2026-03-27T10:50:18.998Z</time></trkpt><trkpt lat="39.36489506999574" lon="16.028536105209515"><ele>3.0</ele><time>2026-03-27T10:50:22.998Z</time></trkpt><trkpt lat="39.36483300110968" lon="16.028559174442993"><ele>3.0</ele><time>2026-03-27T10:50:26.998Z</time></trkpt><trkpt lat="39.36476672347094" lon="16.028593288148276"><ele>2.9999999999999996</ele><time>2026-03-27T10:50:31.998Z</time></trkpt><trkpt lat="39.364693031237415" lon="16.028622416379942"><ele>3.0</ele><time>2026-03-27T10:50:36.998Z</time></trkpt><trkpt lat="39.36462691085842" lon="16.02863903215681"><ele>2.714285714285714</ele><time>2026-03-27T10:50:40.998Z</time></trkpt><trkpt lat="39.36455474808388" lon="16.028666721854062"><ele>2.4285714285714284</ele><time>2026-03-27T10:50:45.998Z</time></trkpt><trkpt lat="39.36449382430425" lon="16.02868779683188"><ele>2.142857142857143</ele><time>2026-03-27T10:50:50Z</time></trkpt><trkpt lat="39.36442240080611" lon="16.028713783930584"><ele>1.857142857142857</ele><time>2026-03-27T10:50:55Z</time></trkpt><trkpt lat="39.36435588774497" lon="16.028719035679647"><ele>1.5714285714285712</ele><time>2026-03-27T10:51:00Z</time></trkpt><trkpt lat="39.36428763602268" lon="16.028739695391973"><ele>1.2857142857142856</ele><time>2026-03-27T10:51:05Z</time></trkpt><trkpt lat="39.36421681141584" lon="16.02875921375898"><ele>1.0</ele><time>2026-03-27T10:51:09.999Z</time></trkpt><trkpt lat="39.36415168958149" lon="16.028787088711255"><ele>1.0</ele><time>2026-03-27T10:51:14.999Z</time></trkpt><trkpt lat="39.36408261736906" lon="16.02879458102582"><ele>0.9999999999999999</ele><time>2026-03-27T10:51:19.999Z</time></trkpt><trkpt lat="39.364011234128945" lon="16.028811561090045"><ele>1.0</ele><time>2026-03-27T10:51:24.999Z</time></trkpt><trkpt lat="39.3639397023735" lon="16.02882355409479"><ele>1.0</ele><time>2026-03-27T10:51:29.999Z</time></trkpt><trkpt lat="39.363876385715486" lon="16.028827678351558"><ele>0.9999999999999999</ele><time>2026-03-27T10:51:33.999Z</time></trkpt><trkpt lat="39.363801444705075" lon="16.028851639439257"><ele>1.0</ele><time>2026-03-27T10:51:38.999Z</time></trkpt><trkpt lat="39.363725095727126" lon="16.028865342859866"><ele>1.0</ele><time>2026-03-27T10:51:43.999Z</time></trkpt><trkpt lat="39.36365119633211" lon="16.02886355272935"><ele>0.8571428571428571</ele><time>2026-03-27T10:51:48.999Z</time></trkpt><trkpt lat="39.36358738578775" lon="16.02886689795905"><ele>0.7142857142857142</ele><time>2026-03-27T10:51:52.999Z</time></trkpt><trkpt lat="39.363515729533" lon="16.0288887638523"><ele>0.5714285714285714</ele><time>2026-03-27T10:51:57.999Z</time></trkpt><trkpt lat="39.363450965420036" lon="16.02889893274355"><ele>0.42857142857142855</ele><time>2026-03-27T10:52:02.999Z</time></trkpt><trkpt lat="39.36337958592129" lon="16.028908599437717"><ele>0.2857142857142857</ele><time>2026-03-27T10:52:07.999Z</time></trkpt><trkpt lat="39.36329976552323" lon="16.028909213731446"><ele>0.14285714285714285</ele><time>2026-03-27T10:52:12.999Z</time></trkpt><trkpt lat="39.36323765080517" lon="16.028929813296752"><ele>0.0</ele><time>2026-03-27T10:52:17.999Z</time></trkpt><trkpt lat="39.3631690608071" lon="16.028942744560112"><ele>0.0</ele><time>2026-03-27T10:52:22.999Z</time></trkpt><trkpt lat="39.36309615035795" lon="16.028957767148192"><ele>0.0</ele><time>2026-03-27T10:52:27.999Z</time></trkpt><trkpt lat="39.363021496973694" lon="16.028968957970942"><ele>0.0</ele><time>2026-03-27T10:52:32.999Z</time></trkpt><trkpt lat="39.3629446233501" lon="16.028990841111153"><ele>0.0</ele><time>2026-03-27T10:52:37.998Z</time></trkpt><trkpt lat="39.362873067559285" lon="16.028996649926576"><ele>0.0</ele><time>2026-03-27T10:52:42.998Z</time></trkpt><trkpt lat="39.36280169026262" lon="16.0290202506661"><ele>0.0</ele><time>2026-03-27T10:52:47.998Z</time></trkpt><trkpt lat="39.36273218396825" lon="16.0290475610331"><ele>0.0</ele><time>2026-03-27T10:52:53Z</time></trkpt><trkpt lat="39.36267337791478" lon="16.02907698495214"><ele>0.0</ele><time>2026-03-27T10:52:57Z</time></trkpt><trkpt lat="39.36261179606773" lon="16.029126600021996"><ele>0.0</ele><time>2026-03-27T10:53:02Z</time></trkpt><trkpt lat="39.362535896839475" lon="16.029149775330467"><ele>0.0</ele><time>2026-03-27T10:53:07Z</time></trkpt><trkpt lat="39.362473387258596" lon="16.029179453885735"><ele>0.0</ele><time>2026-03-27T10:53:12Z</time></trkpt><trkpt lat="39.36241261828284" lon="16.029210755713855"><ele>0.0</ele><time>2026-03-27T10:53:16Z</time></trkpt><trkpt lat="39.36234953625929" lon="16.029238573895114"><ele>0.0</ele><time>2026-03-27T10:53:20.999Z</time></trkpt><trkpt lat="39.36227844323825" lon="16.029270631870215"><ele>0.0</ele><time>2026-03-27T10:53:25.999Z</time></trkpt><trkpt lat="39.362212200087846" lon="16.029301278171392"><ele>0.14285714285714285</ele><time>2026-03-27T10:53:30.999Z</time></trkpt><trkpt lat="39.36214441244519" lon="16.029337172499538"><ele>0.2857142857142857</ele><time>2026-03-27T10:53:35.999Z</time></trkpt><trkpt lat="39.36207818262646" lon="16.029380648061714"><ele>0.42857142857142855</ele><time>2026-03-27T10:53:40.999Z</time></trkpt><trkpt lat="39.36200393931926" lon="16.029413492636824"><ele>0.5714285714285714</ele><time>2026-03-27T10:53:45.999Z</time></trkpt><trkpt lat="39.36193220250333" lon="16.029445893749806"><ele>0.7142857142857142</ele><time>2026-03-27T10:53:51.999Z</time></trkpt><trkpt lat="39.36187283828451" lon="16.029473089027512"><ele>0.8571428571428571</ele><time>2026-03-27T10:53:55.999Z</time></trkpt><trkpt lat="39.361813650265645" lon="16.029502854001652"><ele>1.0</ele><time>2026-03-27T10:53:59.999Z</time></trkpt><trkpt lat="39.361749300318586" lon="16.02953387554962"><ele>1.0</ele><time>2026-03-27T10:54:04.999Z</time></trkpt><trkpt lat="39.36167593897187" lon="16.029568341418084"><ele>0.9999999999999999</ele><time>2026-03-27T10:54:09.999Z</time></trkpt><trkpt lat="39.36161157961371" lon="16.02959115720708"><ele>1.0</ele><time>2026-03-27T10:54:13.999Z</time></trkpt><trkpt lat="39.361544104179124" lon="16.029632260748194"><ele>1.0</ele><time>2026-03-27T10:54:19.999Z</time></trkpt><trkpt lat="39.36147402393184" lon="16.02966291986922"><ele>0.9999999999999999</ele><time>2026-03-27T10:54:24.999Z</time></trkpt><trkpt lat="39.361404135572805" lon="16.029691028166866"><ele>1.0</ele><time>2026-03-27T10:54:29.999Z</time></trkpt><trkpt lat="39.36133194449859" lon="16.029727244928687"><ele>1.0</ele><time>2026-03-27T10:54:34.999Z</time></trkpt><trkpt lat="39.361266348161834" lon="16.029768445530504"><ele>0.8571428571428571</ele><time>2026-03-27T10:54:39.998Z</time></trkpt><trkpt lat="39.3611992633012" lon="16.029791069412624"><ele>0.7142857142857142</ele><time>2026-03-27T10:54:44.998Z</time></trkpt><trkpt lat="39.36112737878961" lon="16.029823838272307"><ele>0.5714285714285714</ele><time>2026-03-27T10:54:49.998Z</time></trkpt><trkpt lat="39.36106211214564" lon="16.029848082834242"><ele>0.42857142857142855</ele><time>2026-03-27T10:54:54.998Z</time></trkpt><trkpt lat="39.360988304538516" lon="16.029883742656267"><ele>0.2857142857142857</ele><time>2026-03-27T10:55:00Z</time></trkpt><trkpt lat="39.360924722852864" lon="16.029916236550786"><ele>0.14285714285714285</ele><time>2026-03-27T10:55:05Z</time></trkpt><trkpt lat="39.36085663931085" lon="16.029952132747418"><ele>0.0</ele><time>2026-03-27T10:55:10Z</time></trkpt><trkpt lat="39.36079806134593" lon="16.029988683607463"><ele>0.0</ele><time>2026-03-27T10:55:14Z</time></trkpt><trkpt lat="39.3607295659425" lon="16.030018256909063"><ele>0.0</ele><time>2026-03-27T10:55:19Z</time></trkpt><trkpt lat="39.36066244090832" lon="16.03004835074987"><ele>0.0</ele><time>2026-03-27T10:55:24Z</time></trkpt><trkpt lat="39.36060349435461" lon="16.03007772839372"><ele>0.0</ele><time>2026-03-27T10:55:27.999Z</time></trkpt><trkpt lat="39.360543569586795" lon="16.0301059002214"><ele>0.0</ele><time>2026-03-27T10:55:31.999Z</time></trkpt><trkpt lat="39.36047689535448" lon="16.03014401123942"><ele>0.0</ele><time>2026-03-27T10:55:36.999Z</time></trkpt><trkpt lat="39.36041246807622" lon="16.03017562436011"><ele>0.0</ele><time>2026-03-27T10:55:41.999Z</time></trkpt><trkpt lat="39.36034096736766" lon="16.030212917177337"><ele>0.0</ele><time>2026-03-27T10:55:46.999Z</time></trkpt><trkpt lat="39.360271428349954" lon="16.03024709893836"><ele>0.0</ele><time>2026-03-27T10:55:51.999Z</time></trkpt><trkpt lat="39.360196354278735" lon="16.03027822345178"><ele>0.0</ele><time>2026-03-27T10:55:56.999Z</time></trkpt><trkpt lat="39.36013758654367" lon="16.03031918283711"><ele>0.0</ele><time>2026-03-27T10:56:01.999Z</time></trkpt><trkpt lat="39.36006925429356" lon="16.030360436958457"><ele>0.0</ele><time>2026-03-27T10:56:06.999Z</time></trkpt><trkpt lat="39.36000780737162" lon="16.03040813312503"><ele>0.0</ele><time>2026-03-27T10:56:11.999Z</time></trkpt></trkseg></trk></gpx>